sensor_id;sensor_type;location;lat;lon;timestamp;P1;durP1;ratioP1;P2;durP2;ratioP2
1533;SDS011;760;48.822;9.304;2022-11-24T05:06:18;1.55;;;1.10;;
1533;SDS011;760;48.822;9.304;2022-11-24T05:08:47;2.25;;;0.95;;
1533;SDS011;760;48.822;9.304;2022-11-24T05:11:14;1.23;;;1.05;;
1533;SDS011;760;48.822;9.304;2022-11-24T05:13:40;1.17;;;0.90;;
1533;SDS011;760;48.822;9.304;2022-11-24T05:16:06;2.70;;;1.13;;
1533;SDS011;760;48.822;9.304;2022-11-24T05:18:32;3.97;;;1.30;;
1533;SDS011;760;48.822;9.304;2022-11-24T05:20:58;2.93;;;1.07;;
1533;SDS011;760;48.822;9.304;2022-11-24T05:23:24;1.15;;;1.05;;
1533;SDS011;760;48.822;9.304;2022-11-24T05:25:50;2.22;;;1.55;;
1533;SDS011;760;48.822;9.304;2022-11-24T05:28:16;3.00;;;0.90;;
1533;SDS011;760;48.822;9.304;2022-11-24T05:30:42;0.70;;;0.70;;
1533;SDS011;760;48.822;9.304;2022-11-24T05:33:12;2.60;;;1.20;;
1533;SDS011;760;48.822;9.304;2022-11-24T05:35:43;1.63;;;0.77;;
1533;SDS011;760;48.822;9.304;2022-11-24T05:38:09;0.90;;;0.90;;
1533;SDS011;760;48.822;9.304;2022-11-24T05:40:35;0.60;;;0.60;;
1533;SDS011;760;48.822;9.304;2022-11-24T05:43:01;5.53;;;1.15;;
1533;SDS011;760;48.822;9.304;2022-11-24T05:45:27;4.13;;;1.17;;
1533;SDS011;760;48.822;9.304;2022-11-24T05:47:52;1.70;;;0.93;;
1533;SDS011;760;48.822;9.304;2022-11-24T05:50:19;6.03;;;1.87;;
1533;SDS011;760;48.822;9.304;2022-11-24T05:52:45;1.08;;;1.08;;
1533;SDS011;760;48.822;9.304;2022-11-24T05:55:11;1.53;;;1.00;;
1533;SDS011;760;48.822;9.304;2022-11-24T05:57:39;0.82;;;0.75;;
1533;SDS011;760;48.822;9.304;2022-11-24T06:00:05;2.65;;;0.90;;
1533;SDS011;760;48.822;9.304;2022-11-24T06:02:32;1.45;;;0.98;;
1533;SDS011;760;48.822;9.304;2022-11-24T06:04:57;3.60;;;1.80;;
1533;SDS011;760;48.822;9.304;2022-11-24T06:07:23;1.57;;;0.80;;
1533;SDS011;760;48.822;9.304;2022-11-24T06:09:49;0.60;;;0.60;;
1533;SDS011;760;48.822;9.304;2022-11-24T06:12:14;1.00;;;0.77;;
1533;SDS011;760;48.822;9.304;2022-11-24T06:14:40;1.30;;;1.13;;
1533;SDS011;760;48.822;9.304;2022-11-24T06:17:06;0.80;;;0.77;;
1533;SDS011;760;48.822;9.304;2022-11-24T06:19:33;2.83;;;1.65;;
1533;SDS011;760;48.822;9.304;2022-11-24T06:21:59;1.60;;;1.10;;
1533;SDS011;760;48.822;9.304;2022-11-24T06:24:25;3.63;;;0.63;;
1533;SDS011;760;48.822;9.304;2022-11-24T06:26:50;3.93;;;1.10;;
1533;SDS011;760;48.822;9.304;2022-11-24T06:29:16;0.63;;;0.57;;
1533;SDS011;760;48.822;9.304;2022-11-24T06:31:41;0.80;;;0.70;;
1533;SDS011;760;48.822;9.304;2022-11-24T06:34:07;0.80;;;0.70;;
1533;SDS011;760;48.822;9.304;2022-11-24T06:36:36;3.20;;;1.50;;
1533;SDS011;760;48.822;9.304;2022-11-24T06:39:03;2.28;;;1.25;;
1533;SDS011;760;48.822;9.304;2022-11-24T06:41:29;1.23;;;1.17;;
1533;SDS011;760;48.822;9.304;2022-11-24T06:43:54;1.90;;;0.80;;
1533;SDS011;760;48.822;9.304;2022-11-24T06:46:20;2.10;;;1.13;;
1533;SDS011;760;48.822;9.304;2022-11-24T06:48:46;1.77;;;1.48;;
1533;SDS011;760;48.822;9.304;2022-11-24T06:51:14;2.85;;;1.20;;
1533;SDS011;760;48.822;9.304;2022-11-24T06:53:42;3.20;;;0.90;;
1533;SDS011;760;48.822;9.304;2022-11-24T06:56:09;1.08;;;0.90;;
1533;SDS011;760;48.822;9.304;2022-11-24T06:58:40;4.47;;;1.75;;
1533;SDS011;760;48.822;9.304;2022-11-24T07:01:07;1.05;;;1.02;;
1533;SDS011;760;48.822;9.304;2022-11-24T07:03:32;3.70;;;1.70;;
1533;SDS011;760;48.822;9.304;2022-11-24T07:05:58;0.83;;;0.83;;
1533;SDS011;760;48.822;9.304;2022-11-24T07:08:23;1.50;;;1.00;;
1533;SDS011;760;48.822;9.304;2022-11-24T07:10:49;1.67;;;0.90;;
1533;SDS011;760;48.822;9.304;2022-11-24T07:13:16;1.35;;;0.88;;
1533;SDS011;760;48.822;9.304;2022-11-24T07:15:43;1.95;;;0.98;;
1533;SDS011;760;48.822;9.304;2022-11-24T07:18:09;2.53;;;1.23;;
1533;SDS011;760;48.822;9.304;2022-11-24T07:20:34;2.20;;;1.00;;
1533;SDS011;760;48.822;9.304;2022-11-24T07:23:00;4.50;;;1.10;;
1533;SDS011;760;48.822;9.304;2022-11-24T07:25:25;1.33;;;0.83;;
1533;SDS011;760;48.822;9.304;2022-11-24T07:27:55;1.23;;;1.02;;
1533;SDS011;760;48.822;9.304;2022-11-24T07:30:24;2.78;;;2.35;;
1533;SDS011;760;48.822;9.304;2022-11-24T07:32:51;5.38;;;2.15;;
1533;SDS011;760;48.822;9.304;2022-11-24T07:35:23;1.63;;;1.02;;
1533;SDS011;760;48.822;9.304;2022-11-24T07:37:48;0.93;;;0.90;;
1533;SDS011;760;48.822;9.304;2022-11-24T07:40:14;2.00;;;0.90;;
1533;SDS011;760;48.822;9.304;2022-11-24T07:42:40;3.07;;;1.97;;
1533;SDS011;760;48.822;9.304;2022-11-24T07:45:05;1.73;;;1.60;;
1533;SDS011;760;48.822;9.304;2022-11-24T07:47:31;1.17;;;1.17;;
1533;SDS011;760;48.822;9.304;2022-11-24T07:49:57;1.63;;;1.13;;
1533;SDS011;760;48.822;9.304;2022-11-24T07:52:22;4.43;;;2.20;;
1533;SDS011;760;48.822;9.304;2022-11-24T07:54:50;1.60;;;1.50;;
1533;SDS011;760;48.822;9.304;2022-11-24T07:57:16;3.33;;;1.50;;
1533;SDS011;760;48.822;9.304;2022-11-24T07:59:41;1.70;;;1.10;;
1533;SDS011;760;48.822;9.304;2022-11-24T08:02:08;1.40;;;1.30;;
1533;SDS011;760;48.822;9.304;2022-11-24T08:04:36;1.67;;;0.93;;
1533;SDS011;760;48.822;9.304;2022-11-24T08:07:01;2.00;;;1.40;;
1533;SDS011;760;48.822;9.304;2022-11-24T08:09:27;3.00;;;2.10;;
1533;SDS011;760;48.822;9.304;2022-11-24T08:11:52;3.43;;;1.70;;
1533;SDS011;760;48.822;9.304;2022-11-24T08:14:18;2.13;;;1.60;;
1533;SDS011;760;48.822;9.304;2022-11-24T08:16:43;2.73;;;1.63;;
1533;SDS011;760;48.822;9.304;2022-11-24T08:19:09;2.43;;;1.30;;
1533;SDS011;760;48.822;9.304;2022-11-24T08:21:35;2.45;;;1.45;;
1533;SDS011;760;48.822;9.304;2022-11-24T08:24:01;0.93;;;0.93;;
1533;SDS011;760;48.822;9.304;2022-11-24T08:26:28;1.00;;;1.00;;
1533;SDS011;760;48.822;9.304;2022-11-24T08:28:54;1.40;;;1.20;;
1533;SDS011;760;48.822;9.304;2022-11-24T08:31:22;1.10;;;1.00;;
1533;SDS011;760;48.822;9.304;2022-11-24T08:33:48;1.17;;;0.98;;
1533;SDS011;760;48.822;9.304;2022-11-24T08:36:15;1.70;;;1.33;;
1533;SDS011;760;48.822;9.304;2022-11-24T08:38:42;1.10;;;1.00;;
1533;SDS011;760;48.822;9.304;2022-11-24T08:41:09;4.93;;;1.55;;
1533;SDS011;760;48.822;9.304;2022-11-24T08:43:37;1.40;;;1.10;;
1533;SDS011;760;48.822;9.304;2022-11-24T08:46:07;1.80;;;0.90;;
1533;SDS011;760;48.822;9.304;2022-11-24T08:48:34;1.48;;;1.00;;
1533;SDS011;760;48.822;9.304;2022-11-24T08:51:10;1.23;;;1.13;;
1533;SDS011;760;48.822;9.304;2022-11-24T08:53:37;1.58;;;1.30;;
1533;SDS011;760;48.822;9.304;2022-11-24T08:56:04;3.60;;;2.53;;
1533;SDS011;760;48.822;9.304;2022-11-24T08:58:31;1.90;;;1.15;;
1533;SDS011;760;48.822;9.304;2022-11-24T09:01:07;2.90;;;1.83;;
1533;SDS011;760;48.822;9.304;2022-11-24T09:03:37;2.10;;;1.40;;
1533;SDS011;760;48.822;9.304;2022-11-24T09:06:04;1.13;;;1.05;;
1533;SDS011;760;48.822;9.304;2022-11-24T09:08:31;3.25;;;0.93;;
1533;SDS011;760;48.822;9.304;2022-11-24T09:11:02;4.00;;;0.93;;
1533;SDS011;760;48.822;9.304;2022-11-24T09:13:32;3.55;;;1.75;;
1533;SDS011;760;48.822;9.304;2022-11-24T09:16:04;1.65;;;1.20;;
1533;SDS011;760;48.822;9.304;2022-11-24T09:18:34;1.90;;;1.80;;
1533;SDS011;760;48.822;9.304;2022-11-24T09:23:33;3.42;;;2.47;;
1533;SDS011;760;48.822;9.304;2022-11-24T09:26:03;1.30;;;1.20;;
1533;SDS011;760;48.822;9.304;2022-11-24T09:28:29;1.38;;;1.25;;
1533;SDS011;760;48.822;9.304;2022-11-24T09:30:58;1.03;;;1.00;;
1533;SDS011;760;48.822;9.304;2022-11-24T09:33:28;4.65;;;1.40;;
1533;SDS011;760;48.822;9.304;2022-11-24T09:35:55;2.17;;;0.80;;
1533;SDS011;760;48.822;9.304;2022-11-24T09:38:21;1.50;;;0.87;;
1533;SDS011;760;48.822;9.304;2022-11-24T09:40:47;4.37;;;2.60;;
1533;SDS011;760;48.822;9.304;2022-11-24T09:48:55;1.23;;;1.13;;
1533;SDS011;760;48.822;9.304;2022-11-24T09:51:24;0.80;;;0.80;;
1533;SDS011;760;48.822;9.304;2022-11-24T09:56:31;1.30;;;1.20;;
1533;SDS011;760;48.822;9.304;2022-11-24T09:58:59;1.15;;;0.80;;
1533;SDS011;760;48.822;9.304;2022-11-24T10:01:38;2.17;;;0.70;;
1533;SDS011;760;48.822;9.304;2022-11-24T10:04:15;0.68;;;0.65;;
1533;SDS011;760;48.822;9.304;2022-11-24T10:06:50;0.90;;;0.43;;
1533;SDS011;760;48.822;9.304;2022-11-24T10:09:37;1.23;;;0.70;;
1533;SDS011;760;48.822;9.304;2022-11-24T10:18:47;0.60;;;0.50;;
1533;SDS011;760;48.822;9.304;2022-11-24T10:26:57;0.47;;;0.47;;
1533;SDS011;760;48.822;9.304;2022-11-24T10:32:05;0.80;;;0.80;;
1533;SDS011;760;48.822;9.304;2022-11-24T10:34:40;0.40;;;0.40;;
1533;SDS011;760;48.822;9.304;2022-11-24T10:42:45;0.63;;;0.60;;
1533;SDS011;760;48.822;9.304;2022-11-24T10:47:43;0.60;;;0.60;;
1533;SDS011;760;48.822;9.304;2022-11-24T10:50:19;7.13;;;0.93;;
1533;SDS011;760;48.822;9.304;2022-11-24T10:53:19;2.53;;;0.60;;
1533;SDS011;760;48.822;9.304;2022-11-24T10:58:21;0.57;;;0.57;;
1533;SDS011;760;48.822;9.304;2022-11-24T11:00:48;0.80;;;0.70;;
1533;SDS011;760;48.822;9.304;2022-11-24T11:03:15;1.93;;;1.00;;
1533;SDS011;760;48.822;9.304;2022-11-24T11:05:51;0.67;;;0.60;;
1533;SDS011;760;48.822;9.304;2022-11-24T11:08:25;1.03;;;0.50;;
1533;SDS011;760;48.822;9.304;2022-11-24T11:13:54;0.53;;;0.50;;
1533;SDS011;760;48.822;9.304;2022-11-24T11:19:04;0.57;;;0.57;;
1533;SDS011;760;48.822;9.304;2022-11-24T11:21:57;0.60;;;0.50;;
1533;SDS011;760;48.822;9.304;2022-11-24T11:24:28;0.83;;;0.83;;
1533;SDS011;760;48.822;9.304;2022-11-24T11:27:01;0.70;;;0.70;;
1533;SDS011;760;48.822;9.304;2022-11-24T11:29:30;0.57;;;0.57;;
1533;SDS011;760;48.822;9.304;2022-11-24T11:31:56;0.70;;;0.70;;
1533;SDS011;760;48.822;9.304;2022-11-24T11:34:24;0.87;;;0.87;;
1533;SDS011;760;48.822;9.304;2022-11-24T11:36:51;3.27;;;1.37;;
1533;SDS011;760;48.822;9.304;2022-11-24T11:39:31;0.70;;;0.70;;
1533;SDS011;760;48.822;9.304;2022-11-24T11:42:02;0.90;;;0.77;;
1533;SDS011;760;48.822;9.304;2022-11-24T11:44:33;0.50;;;0.50;;
1533;SDS011;760;48.822;9.304;2022-11-24T11:47:07;0.70;;;0.70;;
1533;SDS011;760;48.822;9.304;2022-11-24T11:49:50;0.40;;;0.40;;
1533;SDS011;760;48.822;9.304;2022-11-24T11:52:25;2.77;;;0.60;;
1533;SDS011;760;48.822;9.304;2022-11-24T11:58:04;1.00;;;0.77;;
1533;SDS011;760;48.822;9.304;2022-11-24T12:01:10;0.50;;;0.50;;
1533;SDS011;760;48.822;9.304;2022-11-24T12:07:00;0.97;;;0.80;;
1533;SDS011;760;48.822;9.304;2022-11-24T12:12:26;1.23;;;0.70;;
1533;SDS011;760;48.822;9.304;2022-11-24T12:15:14;0.97;;;0.50;;
1533;SDS011;760;48.822;9.304;2022-11-24T12:20:31;1.23;;;0.80;;
1533;SDS011;760;48.822;9.304;2022-11-24T12:23:19;0.47;;;0.47;;
1533;SDS011;760;48.822;9.304;2022-11-24T12:31:45;0.90;;;0.90;;
1533;SDS011;760;48.822;9.304;2022-11-24T12:39:54;1.17;;;1.07;;
1533;SDS011;760;48.822;9.304;2022-11-24T12:42:27;5.30;;;0.93;;
1533;SDS011;760;48.822;9.304;2022-11-24T12:50:18;0.80;;;0.60;;
1533;SDS011;760;48.822;9.304;2022-11-24T12:52:49;4.30;;;0.70;;
1533;SDS011;760;48.822;9.304;2022-11-24T12:55:19;0.83;;;0.60;;
1533;SDS011;760;48.822;9.304;2022-11-24T13:06:26;1.13;;;0.77;;
1533;SDS011;760;48.822;9.304;2022-11-24T13:09:02;2.13;;;1.50;;
1533;SDS011;760;48.822;9.304;2022-11-24T13:11:37;2.73;;;1.30;;
1533;SDS011;760;48.822;9.304;2022-11-24T13:14:10;1.93;;;1.33;;
1533;SDS011;760;48.822;9.304;2022-11-24T13:16:55;0.70;;;0.70;;
1533;SDS011;760;48.822;9.304;2022-11-24T13:19:24;2.17;;;1.07;;
1533;SDS011;760;48.822;9.304;2022-11-24T13:21:59;1.07;;;0.70;;
1533;SDS011;760;48.822;9.304;2022-11-24T13:24:28;0.60;;;0.60;;
1533;SDS011;760;48.822;9.304;2022-11-24T13:29:41;0.90;;;0.60;;
1533;SDS011;760;48.822;9.304;2022-11-24T13:39:48;0.70;;;0.70;;
1533;SDS011;760;48.822;9.304;2022-11-24T13:42:16;3.20;;;1.33;;
1533;SDS011;760;48.822;9.304;2022-11-24T13:45:01;1.40;;;0.60;;
1533;SDS011;760;48.822;9.304;2022-11-24T13:47:30;0.90;;;0.63;;
1533;SDS011;760;48.822;9.304;2022-11-24T13:49:55;1.43;;;0.70;;
1533;SDS011;760;48.822;9.304;2022-11-24T13:52:35;1.07;;;0.60;;
1533;SDS011;760;48.822;9.304;2022-11-24T14:00:30;2.17;;;1.10;;
1533;SDS011;760;48.822;9.304;2022-11-24T14:03:03;1.07;;;0.97;;
1533;SDS011;760;48.822;9.304;2022-11-24T14:05:49;0.93;;;0.90;;
1533;SDS011;760;48.822;9.304;2022-11-24T14:08:23;1.43;;;1.00;;
1533;SDS011;760;48.822;9.304;2022-11-24T14:10:55;2.53;;;1.37;;
1533;SDS011;760;48.822;9.304;2022-11-24T14:18:37;1.87;;;0.63;;
1533;SDS011;760;48.822;9.304;2022-11-24T14:23:48;1.40;;;0.83;;
1533;SDS011;760;48.822;9.304;2022-11-24T14:26:27;1.63;;;1.17;;
1533;SDS011;760;48.822;9.304;2022-11-24T14:29:05;3.40;;;1.07;;
1533;SDS011;760;48.822;9.304;2022-11-24T14:31:37;1.90;;;0.80;;
1533;SDS011;760;48.822;9.304;2022-11-24T14:34:21;2.27;;;0.87;;
1533;SDS011;760;48.822;9.304;2022-11-24T14:36:49;1.00;;;0.90;;
1533;SDS011;760;48.822;9.304;2022-11-24T14:39:16;2.07;;;1.40;;
1533;SDS011;760;48.822;9.304;2022-11-24T14:41:49;1.17;;;0.90;;
1533;SDS011;760;48.822;9.304;2022-11-24T14:44:30;3.77;;;1.33;;
1533;SDS011;760;48.822;9.304;2022-11-24T14:47:27;1.88;;;1.40;;
1533;SDS011;760;48.822;9.304;2022-11-24T14:50:13;2.83;;;1.80;;
1533;SDS011;760;48.822;9.304;2022-11-24T14:52:52;2.35;;;1.10;;
1533;SDS011;760;48.822;9.304;2022-11-24T14:55:31;1.48;;;0.60;;
1533;SDS011;760;48.822;9.304;2022-11-24T14:57:59;0.80;;;0.80;;
1533;SDS011;760;48.822;9.304;2022-11-24T15:05:25;3.88;;;1.02;;
1533;SDS011;760;48.822;9.304;2022-11-24T15:08:36;2.20;;;0.80;;
1533;SDS011;760;48.822;9.304;2022-11-24T15:11:08;4.30;;;0.80;;
1533;SDS011;760;48.822;9.304;2022-11-24T15:13:35;1.20;;;1.03;;
1533;SDS011;760;48.822;9.304;2022-11-24T15:16:03;1.85;;;1.00;;
1533;SDS011;760;48.822;9.304;2022-11-24T15:18:39;3.13;;;1.43;;
1533;SDS011;760;48.822;9.304;2022-11-24T15:21:08;1.80;;;1.13;;
1533;SDS011;760;48.822;9.304;2022-11-24T15:23:35;2.80;;;1.03;;
1533;SDS011;760;48.822;9.304;2022-11-24T15:28:30;2.00;;;1.33;;
1533;SDS011;760;48.822;9.304;2022-11-24T15:30:58;2.40;;;1.80;;
1533;SDS011;760;48.822;9.304;2022-11-24T15:33:25;9.45;;;5.68;;
1533;SDS011;760;48.822;9.304;2022-11-24T15:35:51;4.82;;;3.53;;
1533;SDS011;760;48.822;9.304;2022-11-24T15:38:17;1.50;;;1.10;;
1533;SDS011;760;48.822;9.304;2022-11-24T15:40:43;3.03;;;1.80;;
1533;SDS011;760;48.822;9.304;2022-11-24T15:45:56;3.03;;;1.15;;
1533;SDS011;760;48.822;9.304;2022-11-24T15:48:23;1.17;;;0.98;;
1533;SDS011;760;48.822;9.304;2022-11-24T15:50:49;1.73;;;1.13;;
1533;SDS011;760;48.822;9.304;2022-11-24T15:53:17;3.08;;;1.35;;
1533;SDS011;760;48.822;9.304;2022-11-24T15:55:54;2.38;;;2.10;;
1533;SDS011;760;48.822;9.304;2022-11-24T15:58:21;2.67;;;1.40;;
1533;SDS011;760;48.822;9.304;2022-11-24T16:00:46;2.00;;;1.47;;
1533;SDS011;760;48.822;9.304;2022-11-24T16:03:12;1.83;;;1.67;;
1533;SDS011;760;48.822;9.304;2022-11-24T16:05:38;4.40;;;1.20;;
1533;SDS011;760;48.822;9.304;2022-11-24T16:08:05;2.22;;;1.30;;
1533;SDS011;760;48.822;9.304;2022-11-24T16:10:35;1.98;;;1.17;;
1533;SDS011;760;48.822;9.304;2022-11-24T16:13:01;2.53;;;1.90;;
1533;SDS011;760;48.822;9.304;2022-11-24T16:15:27;5.20;;;1.77;;
1533;SDS011;760;48.822;9.304;2022-11-24T16:17:52;1.80;;;1.10;;
1533;SDS011;760;48.822;9.304;2022-11-24T16:20:18;2.63;;;1.53;;
1533;SDS011;760;48.822;9.304;2022-11-24T16:22:44;1.93;;;1.23;;
1533;SDS011;760;48.822;9.304;2022-11-24T16:25:10;1.87;;;1.60;;
1533;SDS011;760;48.822;9.304;2022-11-24T16:27:36;2.40;;;1.00;;
1533;SDS011;760;48.822;9.304;2022-11-24T16:30:02;2.97;;;1.17;;
1533;SDS011;760;48.822;9.304;2022-11-24T16:32:29;1.90;;;1.20;;
1533;SDS011;760;48.822;9.304;2022-11-24T16:34:54;1.50;;;1.13;;
1533;SDS011;760;48.822;9.304;2022-11-24T16:37:20;2.73;;;1.97;;
1533;SDS011;760;48.822;9.304;2022-11-24T16:39:46;1.60;;;1.43;;
1533;SDS011;760;48.822;9.304;2022-11-24T16:42:12;2.17;;;1.52;;
1533;SDS011;760;48.822;9.304;2022-11-24T16:44:37;2.63;;;2.43;;
1533;SDS011;760;48.822;9.304;2022-11-24T16:47:03;16.23;;;8.43;;
1533;SDS011;760;48.822;9.304;2022-11-24T16:49:29;2.30;;;2.10;;
1533;SDS011;760;48.822;9.304;2022-11-24T16:51:54;2.97;;;1.30;;
1533;SDS011;760;48.822;9.304;2022-11-24T16:54:20;1.53;;;1.07;;
1533;SDS011;760;48.822;9.304;2022-11-24T16:56:46;1.50;;;1.40;;
1533;SDS011;760;48.822;9.304;2022-11-24T16:59:11;1.20;;;1.10;;
1533;SDS011;760;48.822;9.304;2022-11-24T17:01:37;1.40;;;1.30;;
1533;SDS011;760;48.822;9.304;2022-11-24T17:04:04;4.55;;;1.38;;
1533;SDS011;760;48.822;9.304;2022-11-24T17:06:31;2.17;;;1.58;;
1533;SDS011;760;48.822;9.304;2022-11-24T17:08:57;10.55;;;1.88;;
1533;SDS011;760;48.822;9.304;2022-11-24T17:11:24;3.42;;;1.20;;
1533;SDS011;760;48.822;9.304;2022-11-24T17:13:51;2.55;;;1.65;;
1533;SDS011;760;48.822;9.304;2022-11-24T17:16:18;2.00;;;1.90;;
1533;SDS011;760;48.822;9.304;2022-11-24T17:18:45;1.95;;;1.40;;
1533;SDS011;760;48.822;9.304;2022-11-24T17:21:21;1.73;;;1.57;;
1533;SDS011;760;48.822;9.304;2022-11-24T17:23:54;2.10;;;1.90;;
1533;SDS011;760;48.822;9.304;2022-11-24T17:26:21;1.70;;;1.25;;
1533;SDS011;760;48.822;9.304;2022-11-24T17:28:47;2.35;;;1.25;;
1533;SDS011;760;48.822;9.304;2022-11-24T17:33:45;1.55;;;1.45;;
1533;SDS011;760;48.822;9.304;2022-11-24T17:36:11;1.10;;;1.10;;
1533;SDS011;760;48.822;9.304;2022-11-24T17:38:36;2.40;;;2.20;;
1533;SDS011;760;48.822;9.304;2022-11-24T17:41:02;1.63;;;1.37;;
1533;SDS011;760;48.822;9.304;2022-11-24T17:43:28;2.40;;;1.60;;
1533;SDS011;760;48.822;9.304;2022-11-24T17:45:54;5.20;;;1.70;;
1533;SDS011;760;48.822;9.304;2022-11-24T17:48:21;2.78;;;1.75;;
1533;SDS011;760;48.822;9.304;2022-11-24T17:50:47;2.37;;;1.70;;
1533;SDS011;760;48.822;9.304;2022-11-24T17:53:13;2.55;;;1.90;;
1533;SDS011;760;48.822;9.304;2022-11-24T17:55:39;2.77;;;2.53;;
1533;SDS011;760;48.822;9.304;2022-11-24T17:58:04;2.97;;;2.67;;
1533;SDS011;760;48.822;9.304;2022-11-24T18:00:30;8.03;;;2.70;;
1533;SDS011;760;48.822;9.304;2022-11-24T18:02:56;2.50;;;2.20;;
1533;SDS011;760;48.822;9.304;2022-11-24T18:05:21;2.67;;;1.77;;
1533;SDS011;760;48.822;9.304;2022-11-24T18:07:47;2.17;;;1.63;;
1533;SDS011;760;48.822;9.304;2022-11-24T18:10:13;4.10;;;2.27;;
1533;SDS011;760;48.822;9.304;2022-11-24T18:12:39;5.03;;;1.80;;
1533;SDS011;760;48.822;9.304;2022-11-24T18:15:04;3.43;;;3.23;;
1533;SDS011;760;48.822;9.304;2022-11-24T18:17:31;4.00;;;3.05;;
1533;SDS011;760;48.822;9.304;2022-11-24T18:19:56;4.20;;;2.23;;
1533;SDS011;760;48.822;9.304;2022-11-24T18:22:22;6.73;;;2.93;;
1533;SDS011;760;48.822;9.304;2022-11-24T18:24:47;3.27;;;1.90;;
1533;SDS011;760;48.822;9.304;2022-11-24T18:27:13;8.20;;;2.53;;
1533;SDS011;760;48.822;9.304;2022-11-24T18:29:38;2.93;;;2.70;;
1533;SDS011;760;48.822;9.304;2022-11-24T18:32:04;5.57;;;2.80;;
1533;SDS011;760;48.822;9.304;2022-11-24T18:34:30;4.63;;;2.70;;
1533;SDS011;760;48.822;9.304;2022-11-24T18:36:55;2.40;;;2.20;;
1533;SDS011;760;48.822;9.304;2022-11-24T18:39:21;2.47;;;2.27;;
1533;SDS011;760;48.822;9.304;2022-11-24T18:41:47;2.60;;;2.33;;
1533;SDS011;760;48.822;9.304;2022-11-24T18:44:12;3.53;;;2.37;;
1533;SDS011;760;48.822;9.304;2022-11-24T18:46:38;3.30;;;3.00;;
1533;SDS011;760;48.822;9.304;2022-11-24T18:49:03;3.40;;;2.40;;
1533;SDS011;760;48.822;9.304;2022-11-24T18:51:30;2.53;;;2.33;;
1533;SDS011;760;48.822;9.304;2022-11-24T18:53:56;8.63;;;3.10;;
1533;SDS011;760;48.822;9.304;2022-11-24T18:56:22;6.20;;;3.70;;
1533;SDS011;760;48.822;9.304;2022-11-24T18:58:51;4.18;;;3.05;;
1533;SDS011;760;48.822;9.304;2022-11-24T19:01:18;2.85;;;2.17;;
1533;SDS011;760;48.822;9.304;2022-11-24T19:03:46;3.67;;;2.40;;
1533;SDS011;760;48.822;9.304;2022-11-24T19:06:17;3.55;;;2.45;;
1533;SDS011;760;48.822;9.304;2022-11-24T19:08:56;3.88;;;2.15;;
1533;SDS011;760;48.822;9.304;2022-11-24T19:11:33;3.35;;;2.70;;
1533;SDS011;760;48.822;9.304;2022-11-24T19:14:00;4.95;;;3.67;;
1533;SDS011;760;48.822;9.304;2022-11-24T19:16:27;4.32;;;3.13;;
1533;SDS011;760;48.822;9.304;2022-11-24T19:18:54;3.50;;;2.03;;
1533;SDS011;760;48.822;9.304;2022-11-24T19:21:23;2.60;;;2.42;;
1533;SDS011;760;48.822;9.304;2022-11-24T19:23:50;3.70;;;3.05;;
1533;SDS011;760;48.822;9.304;2022-11-24T19:26:15;5.77;;;2.07;;
1533;SDS011;760;48.822;9.304;2022-11-24T19:28:41;4.07;;;1.60;;
1533;SDS011;760;48.822;9.304;2022-11-24T19:31:07;2.30;;;2.10;;
1533;SDS011;760;48.822;9.304;2022-11-24T19:33:35;9.52;;;3.13;;
1533;SDS011;760;48.822;9.304;2022-11-24T19:36:01;3.73;;;3.20;;
1533;SDS011;760;48.822;9.304;2022-11-24T19:38:29;3.42;;;2.20;;
1533;SDS011;760;48.822;9.304;2022-11-24T19:41:03;1.92;;;1.83;;
1533;SDS011;760;48.822;9.304;2022-11-24T19:43:31;3.03;;;2.72;;
1533;SDS011;760;48.822;9.304;2022-11-24T19:46:04;2.65;;;2.03;;
1533;SDS011;760;48.822;9.304;2022-11-24T19:48:35;3.25;;;3.05;;
1533;SDS011;760;48.822;9.304;2022-11-24T19:51:03;5.55;;;3.38;;
1533;SDS011;760;48.822;9.304;2022-11-24T19:53:31;4.10;;;3.40;;
1533;SDS011;760;48.822;9.304;2022-11-24T19:56:06;6.68;;;4.00;;
1533;SDS011;760;48.822;9.304;2022-11-24T19:58:34;5.63;;;3.85;;
1533;SDS011;760;48.822;9.304;2022-11-24T20:01:04;7.07;;;4.10;;
1533;SDS011;760;48.822;9.304;2022-11-24T20:03:31;4.00;;;3.63;;
1533;SDS011;760;48.822;9.304;2022-11-24T20:05:57;8.10;;;3.77;;
1533;SDS011;760;48.822;9.304;2022-11-24T20:08:22;4.47;;;3.30;;
1533;SDS011;760;48.822;9.304;2022-11-24T20:10:48;3.60;;;3.30;;
1533;SDS011;760;48.822;9.304;2022-11-24T20:13:13;3.50;;;3.30;;
1533;SDS011;760;48.822;9.304;2022-11-24T20:15:39;10.50;;;3.67;;
1533;SDS011;760;48.822;9.304;2022-11-24T20:18:05;10.00;;;5.63;;
1533;SDS011;760;48.822;9.304;2022-11-24T20:20:31;4.00;;;3.60;;
1533;SDS011;760;48.822;9.304;2022-11-24T20:22:57;4.95;;;3.80;;
1533;SDS011;760;48.822;9.304;2022-11-24T20:25:23;7.87;;;4.23;;
1533;SDS011;760;48.822;9.304;2022-11-24T20:27:48;4.38;;;3.88;;
1533;SDS011;760;48.822;9.304;2022-11-24T20:30:14;6.13;;;4.90;;
1533;SDS011;760;48.822;9.304;2022-11-24T20:32:40;5.70;;;3.97;;
1533;SDS011;760;48.822;9.304;2022-11-24T20:35:06;5.10;;;3.90;;
1533;SDS011;760;48.822;9.304;2022-11-24T20:37:31;3.90;;;3.60;;
1533;SDS011;760;48.822;9.304;2022-11-24T20:39:58;4.50;;;4.10;;
1533;SDS011;760;48.822;9.304;2022-11-24T20:42:26;3.83;;;3.45;;
1533;SDS011;760;48.822;9.304;2022-11-24T20:44:51;3.30;;;3.00;;
1533;SDS011;760;48.822;9.304;2022-11-24T20:47:17;4.10;;;2.53;;
1533;SDS011;760;48.822;9.304;2022-11-24T20:49:43;3.43;;;3.13;;
1533;SDS011;760;48.822;9.304;2022-11-24T20:52:09;4.57;;;2.77;;
1533;SDS011;760;48.822;9.304;2022-11-24T20:54:35;4.38;;;3.70;;
1533;SDS011;760;48.822;9.304;2022-11-24T20:57:01;3.80;;;2.70;;
1533;SDS011;760;48.822;9.304;2022-11-24T20:59:27;2.63;;;2.43;;
1533;SDS011;760;48.822;9.304;2022-11-24T21:01:52;4.97;;;4.17;;
1533;SDS011;760;48.822;9.304;2022-11-24T21:04:25;3.63;;;3.28;;
1533;SDS011;760;48.822;9.304;2022-11-24T21:06:51;5.03;;;3.83;;
1533;SDS011;760;48.822;9.304;2022-11-24T21:09:17;5.97;;;4.50;;
1533;SDS011;760;48.822;9.304;2022-11-24T21:11:43;6.50;;;5.90;;
1533;SDS011;760;48.822;9.304;2022-11-24T21:14:09;6.03;;;4.13;;
1533;SDS011;760;48.822;9.304;2022-11-24T21:16:36;4.40;;;3.95;;
1533;SDS011;760;48.822;9.304;2022-11-24T21:19:04;7.40;;;5.20;;
1533;SDS011;760;48.822;9.304;2022-11-24T21:21:35;10.85;;;6.50;;
1533;SDS011;760;48.822;9.304;2022-11-24T21:24:02;7.00;;;4.95;;
1533;SDS011;760;48.822;9.304;2022-11-24T21:26:30;5.13;;;4.63;;
1533;SDS011;760;48.822;9.304;2022-11-24T21:28:59;5.28;;;4.78;;
1533;SDS011;760;48.822;9.304;2022-11-24T21:31:25;8.50;;;5.67;;
1533;SDS011;760;48.822;9.304;2022-11-24T21:33:51;5.17;;;4.60;;
1533;SDS011;760;48.822;9.304;2022-11-24T21:36:19;6.68;;;4.95;;
1533;SDS011;760;48.822;9.304;2022-11-24T21:38:53;5.22;;;4.78;;
1533;SDS011;760;48.822;9.304;2022-11-24T21:41:20;5.40;;;4.88;;
1533;SDS011;760;48.822;9.304;2022-11-24T21:43:47;4.40;;;3.97;;
1533;SDS011;760;48.822;9.304;2022-11-24T21:46:13;4.43;;;3.72;;
1533;SDS011;760;48.822;9.304;2022-11-24T21:48:40;6.07;;;4.03;;
1533;SDS011;760;48.822;9.304;2022-11-24T21:51:07;5.72;;;4.60;;
1533;SDS011;760;48.822;9.304;2022-11-24T21:53:37;4.47;;;4.00;;
1533;SDS011;760;48.822;9.304;2022-11-24T21:56:03;4.72;;;4.03;;
1533;SDS011;760;48.822;9.304;2022-11-24T21:58:31;5.30;;;4.35;;
1533;SDS011;760;48.822;9.304;2022-11-24T22:01:05;6.90;;;5.00;;
1533;SDS011;760;48.822;9.304;2022-11-24T22:03:34;4.78;;;4.38;;
1533;SDS011;760;48.822;9.304;2022-11-24T22:06:00;7.17;;;4.63;;
1533;SDS011;760;48.822;9.304;2022-11-24T22:08:26;5.78;;;5.05;;
1533;SDS011;760;48.822;9.304;2022-11-24T22:10:58;6.13;;;4.88;;
1533;SDS011;760;48.822;9.304;2022-11-24T22:13:24;7.82;;;5.72;;
1533;SDS011;760;48.822;9.304;2022-11-24T22:16:06;9.90;;;7.97;;
1533;SDS011;760;48.822;9.304;2022-11-24T22:18:37;7.18;;;4.68;;
1533;SDS011;760;48.822;9.304;2022-11-24T22:21:04;6.50;;;4.10;;
1533;SDS011;760;48.822;9.304;2022-11-24T22:23:32;3.33;;;3.03;;
1533;SDS011;760;48.822;9.304;2022-11-24T22:26:02;5.32;;;3.95;;
1533;SDS011;760;48.822;9.304;2022-11-24T22:28:34;5.53;;;4.30;;
1533;SDS011;760;48.822;9.304;2022-11-24T22:31:07;3.72;;;3.42;;
1533;SDS011;760;48.822;9.304;2022-11-24T22:33:44;5.97;;;3.97;;
1533;SDS011;760;48.822;9.304;2022-11-24T22:36:10;4.57;;;3.70;;
1533;SDS011;760;48.822;9.304;2022-11-24T22:38:37;5.15;;;4.65;;
1533;SDS011;760;48.822;9.304;2022-11-24T22:41:04;4.97;;;3.42;;